sensor_id;sensor_type;location;lat;lon;timestamp;P1;durP1;ratioP1;P2;durP2;ratioP2
12373;SDS011;6251;51.762;8.660;2024-03-25T00:09:57;14.82;;;3.47;;
12373;SDS011;6251;51.762;8.660;2024-03-25T02:02:16;27.48;;;5.72;;
12373;SDS011;6251;51.762;8.660;2024-03-25T02:12:17;19.85;;;6.20;;
12373;SDS011;6251;51.762;8.660;2024-03-25T03:53:50;31.30;;;8.57;;
12373;SDS011;6251;51.762;8.660;2024-03-25T05:05:20;22.45;;;6.32;;
12373;SDS011;6251;51.762;8.660;2024-03-25T05:15:20;22.33;;;6.83;;
12373;SDS011;6251;51.762;8.660;2024-03-25T05:25:21;28.58;;;7.07;;
12373;SDS011;6251;51.762;8.660;2024-03-25T05:35:28;27.27;;;6.80;;
12373;SDS011;6251;51.762;8.660;2024-03-25T05:45:30;26.05;;;7.53;;
12373;SDS011;6251;51.762;8.660;2024-03-25T05:55:31;19.65;;;6.65;;
12373;SDS011;6251;51.762;8.660;2024-03-25T06:05:31;27.50;;;7.40;;
12373;SDS011;6251;51.762;8.660;2024-03-25T06:15:32;33.38;;;7.85;;
12373;SDS011;6251;51.762;8.660;2024-03-25T06:25:32;35.85;;;9.38;;
12373;SDS011;6251;51.762;8.660;2024-03-25T06:35:35;28.70;;;10.43;;
12373;SDS011;6251;51.762;8.660;2024-03-25T06:45:36;50.17;;;14.55;;
12373;SDS011;6251;51.762;8.660;2024-03-25T06:55:36;60.72;;;16.77;;
12373;SDS011;6251;51.762;8.660;2024-03-25T07:05:37;50.53;;;16.17;;
12373;SDS011;6251;51.762;8.660;2024-03-25T07:15:37;47.10;;;14.85;;
12373;SDS011;6251;51.762;8.660;2024-03-25T07:25:38;45.38;;;13.98;;
12373;SDS011;6251;51.762;8.660;2024-03-25T07:35:40;44.95;;;14.27;;
12373;SDS011;6251;51.762;8.660;2024-03-25T07:45:41;24.73;;;10.63;;
12373;SDS011;6251;51.762;8.660;2024-03-25T07:55:42;25.85;;;9.25;;
12373;SDS011;6251;51.762;8.660;2024-03-25T08:05:42;27.75;;;11.55;;
12373;SDS011;6251;51.762;8.660;2024-03-25T08:15:43;48.05;;;17.15;;
12373;SDS011;6251;51.762;8.660;2024-03-25T08:25:44;47.90;;;18.05;;
12373;SDS011;6251;51.762;8.660;2024-03-25T08:35:44;59.58;;;22.65;;
12373;SDS011;6251;51.762;8.660;2024-03-25T08:45:45;47.53;;;22.80;;
12373;SDS011;6251;51.762;8.660;2024-03-25T08:55:46;41.30;;;20.52;;
12373;SDS011;6251;51.762;8.660;2024-03-25T09:05:47;45.33;;;21.08;;
12373;SDS011;6251;51.762;8.660;2024-03-25T09:15:48;34.58;;;17.65;;
12373;SDS011;6251;51.762;8.660;2024-03-25T09:25:52;33.50;;;15.73;;
12373;SDS011;6251;51.762;8.660;2024-03-25T09:35:53;35.63;;;14.10;;
12373;SDS011;6251;51.762;8.660;2024-03-25T09:45:54;23.70;;;10.95;;
12373;SDS011;6251;51.762;8.660;2024-03-25T09:55:59;22.17;;;10.27;;
12373;SDS011;6251;51.762;8.660;2024-03-25T10:06:00;26.08;;;11.45;;
12373;SDS011;6251;51.762;8.660;2024-03-25T10:16:00;15.43;;;7.60;;
12373;SDS011;6251;51.762;8.660;2024-03-25T10:26:03;9.70;;;4.40;;
12373;SDS011;6251;51.762;8.660;2024-03-25T10:36:03;10.95;;;4.30;;
12373;SDS011;6251;51.762;8.660;2024-03-25T10:46:05;13.25;;;4.70;;
12373;SDS011;6251;51.762;8.660;2024-03-25T10:56:05;11.98;;;5.20;;
12373;SDS011;6251;51.762;8.660;2024-03-25T11:06:07;7.55;;;3.60;;
12373;SDS011;6251;51.762;8.660;2024-03-25T11:16:07;9.98;;;5.55;;
12373;SDS011;6251;51.762;8.660;2024-03-25T11:26:24;12.65;;;6.37;;
12373;SDS011;6251;51.762;8.660;2024-03-25T11:36:27;11.85;;;7.10;;
12373;SDS011;6251;51.762;8.660;2024-03-25T11:46:30;10.07;;;5.55;;
12373;SDS011;6251;51.762;8.660;2024-03-25T11:56:31;7.75;;;5.55;;
12373;SDS011;6251;51.762;8.660;2024-03-25T12:06:32;8.05;;;4.57;;
12373;SDS011;6251;51.762;8.660;2024-03-25T12:16:33;10.45;;;4.22;;
12373;SDS011;6251;51.762;8.660;2024-03-25T12:26:34;7.53;;;4.47;;
12373;SDS011;6251;51.762;8.660;2024-03-25T12:36:35;8.18;;;4.15;;
12373;SDS011;6251;51.762;8.660;2024-03-25T12:46:36;6.15;;;3.55;;
12373;SDS011;6251;51.762;8.660;2024-03-25T12:56:36;8.93;;;3.65;;
12373;SDS011;6251;51.762;8.660;2024-03-25T13:06:37;7.80;;;2.97;;
12373;SDS011;6251;51.762;8.660;2024-03-25T13:16:41;5.18;;;3.05;;
12373;SDS011;6251;51.762;8.660;2024-03-25T13:26:42;8.80;;;3.08;;
12373;SDS011;6251;51.762;8.660;2024-03-25T13:36:42;9.73;;;3.20;;
12373;SDS011;6251;51.762;8.660;2024-03-25T13:46:43;5.80;;;2.72;;
12373;SDS011;6251;51.762;8.660;2024-03-25T13:56:43;6.55;;;3.10;;
12373;SDS011;6251;51.762;8.660;2024-03-25T14:06:45;6.40;;;3.12;;
12373;SDS011;6251;51.762;8.660;2024-03-25T14:16:46;4.10;;;2.58;;
12373;SDS011;6251;51.762;8.660;2024-03-25T14:26:46;5.22;;;2.70;;
12373;SDS011;6251;51.762;8.660;2024-03-25T14:36:47;6.78;;;2.30;;
12373;SDS011;6251;51.762;8.660;2024-03-25T14:46:47;5.37;;;2.45;;
12373;SDS011;6251;51.762;8.660;2024-03-25T14:56:48;6.50;;;2.30;;
12373;SDS011;6251;51.762;8.660;2024-03-25T15:06:49;8.30;;;2.42;;
12373;SDS011;6251;51.762;8.660;2024-03-25T15:16:50;4.62;;;2.05;;
12373;SDS011;6251;51.762;8.660;2024-03-25T15:26:50;4.65;;;2.00;;
12373;SDS011;6251;51.762;8.660;2024-03-25T15:36:51;4.72;;;1.98;;
12373;SDS011;6251;51.762;8.660;2024-03-25T15:46:53;5.00;;;2.30;;
12373;SDS011;6251;51.762;8.660;2024-03-25T15:56:53;5.72;;;2.28;;
12373;SDS011;6251;51.762;8.660;2024-03-25T16:06:54;3.95;;;1.90;;
12373;SDS011;6251;51.762;8.660;2024-03-25T16:16:54;3.30;;;2.00;;
12373;SDS011;6251;51.762;8.660;2024-03-25T16:26:55;4.87;;;1.70;;
12373;SDS011;6251;51.762;8.660;2024-03-25T16:36:56;3.30;;;1.87;;
12373;SDS011;6251;51.762;8.660;2024-03-25T16:46:56;5.78;;;2.25;;
12373;SDS011;6251;51.762;8.660;2024-03-25T16:56:57;4.95;;;2.30;;
12373;SDS011;6251;51.762;8.660;2024-03-25T17:06:57;3.42;;;1.95;;
12373;SDS011;6251;51.762;8.660;2024-03-25T17:16:58;2.72;;;2.00;;
12373;SDS011;6251;51.762;8.660;2024-03-25T17:26:58;2.67;;;2.12;;
12373;SDS011;6251;51.762;8.660;2024-03-25T17:36:59;3.60;;;2.40;;
12373;SDS011;6251;51.762;8.660;2024-03-25T17:47:01;5.55;;;2.72;;
12373;SDS011;6251;51.762;8.660;2024-03-25T17:57:02;5.90;;;3.70;;
12373;SDS011;6251;51.762;8.660;2024-03-25T18:07:03;5.70;;;3.33;;
12373;SDS011;6251;51.762;8.660;2024-03-25T18:17:03;4.10;;;3.60;;
12373;SDS011;6251;51.762;8.660;2024-03-25T18:27:04;5.20;;;3.55;;
12373;SDS011;6251;51.762;8.660;2024-03-25T18:37:05;5.12;;;4.68;;
12373;SDS011;6251;51.762;8.660;2024-03-25T18:47:05;6.12;;;5.12;;
12373;SDS011;6251;51.762;8.660;2024-03-25T18:57:06;8.60;;;5.65;;
12373;SDS011;6251;51.762;8.660;2024-03-25T19:07:07;10.45;;;7.93;;
12373;SDS011;6251;51.762;8.660;2024-03-25T19:17:07;9.50;;;6.25;;
12373;SDS011;6251;51.762;8.660;2024-03-25T19:27:08;10.32;;;6.80;;
12373;SDS011;6251;51.762;8.660;2024-03-25T19:37:09;9.48;;;6.72;;
12373;SDS011;6251;51.762;8.660;2024-03-25T19:47:09;11.38;;;7.30;;
12373;SDS011;6251;51.762;8.660;2024-03-25T19:57:10;10.60;;;7.03;;
12373;SDS011;6251;51.762;8.660;2024-03-25T20:07:10;12.23;;;7.30;;
12373;SDS011;6251;51.762;8.660;2024-03-25T20:17:11;8.77;;;7.10;;
12373;SDS011;6251;51.762;8.660;2024-03-25T20:27:12;10.47;;;6.23;;
12373;SDS011;6251;51.762;8.660;2024-03-25T20:37:12;7.80;;;6.30;;
12373;SDS011;6251;51.762;8.660;2024-03-25T20:47:13;10.02;;;6.90;;
12373;SDS011;6251;51.762;8.660;2024-03-25T20:57:14;7.07;;;5.65;;
12373;SDS011;6251;51.762;8.660;2024-03-25T21:07:14;8.10;;;5.90;;
12373;SDS011;6251;51.762;8.660;2024-03-25T21:17:15;9.02;;;5.18;;
12373;SDS011;6251;51.762;8.660;2024-03-25T21:27:15;8.20;;;5.20;;
12373;SDS011;6251;51.762;8.660;2024-03-25T21:37:16;9.20;;;6.30;;
12373;SDS011;6251;51.762;8.660;2024-03-25T21:47:16;5.43;;;4.93;;
12373;SDS011;6251;51.762;8.660;2024-03-25T21:57:17;6.97;;;4.75;;
